Time;durP1;ratioP1;P1;durP2;ratioP2;P2;SDS_P1;SDS_P2;PMS_P1;PMS_P2;Temp;Humidity;BMP_temperature;BMP_pressure;BME280_temperature;BME280_humidity;BME280_pressure;Samples;Min_cycle;Max_cycle;Signal;HPM_P1;HPM_P2
2022/08/23 00:01:59;;;;;;;10.93;5.75;;;27.60;1.00;;;;;;5032306;28;20056;-58
2022/08/23 00:04:51;;;;;;;5.75;3.60;;;27.60;1.00;;;;;;5035227;28;20029;-58
2022/08/23 00:07:18;;;;;;;4.30;2.75;;;27.60;1.00;;;;;;5028131;28;20144;-56
2022/08/23 00:09:43;;;;;;;3.08;2.78;;;27.50;1.00;;;;;;5029866;28;20026;-56
2022/08/23 00:12:14;;;;;;;4.82;3.45;;;27.50;1.00;;;;;;5034141;28;20139;-57
2022/08/23 00:14:45;;;;;;;4.53;3.28;;;27.50;1.00;;;;;;5029054;28;20410;-58
2022/08/23 00:17:12;;;;;;;6.00;2.53;;;27.50;1.00;;;;;;5032106;28;20135;-57
2022/08/23 00:19:38;;;;;;;5.32;2.55;;;27.50;1.00;;;;;;5040130;28;20068;-58
2022/08/23 00:22:05;;;;;;;4.43;2.65;;;27.50;1.00;;;;;;5030600;28;20056;-56
2022/08/23 00:24:32;;;;;;;2.85;1.77;;;27.50;1.00;;;;;;5033483;28;20034;-57
2022/08/23 00:27:12;;;;;;;4.50;2.47;;;27.50;1.00;;;;;;5030395;28;20456;-57
2022/08/23 00:29:51;;;;;;;7.63;2.22;;;27.40;1.00;;;;;;5030945;28;20582;-55
2022/08/23 00:32:25;;;;;;;3.20;2.10;;;27.40;1.00;;;;;;5031319;28;20022;-56
2022/08/23 00:34:51;;;;;;;2.90;2.03;;;27.40;1.00;;;;;;5034886;28;20123;-57
2022/08/23 00:37:18;;;;;;;3.35;1.90;;;27.40;1.00;;;;;;5032792;28;20501;-56
2022/08/23 00:39:44;;;;;;;3.55;1.80;;;27.40;1.00;;;;;;5041289;28;20045;-57
2022/08/23 00:48:07;;;;;;;3.85;1.80;;;27.20;1.00;;;;;;5035279;28;20029;-56
2022/08/23 00:50:58;;;;;;;3.63;1.58;;;27.20;1.00;;;;;;5031147;28;20327;-55
2022/08/23 00:53:28;;;;;;;6.47;2.30;;;27.20;1.00;;;;;;5017928;28;20112;-56
2022/08/23 00:56:09;;;;;;;4.05;1.80;;;27.20;1.00;;;;;;5025470;28;20335;-57
2022/08/23 00:58:35;;;;;;;2.70;1.73;;;27.20;1.00;;;;;;5022168;28;20106;-57
2022/08/23 01:01:02;;;;;;;2.42;1.92;;;27.10;1.00;;;;;;5035106;28;20041;-58
2022/08/23 01:03:33;;;;;;;3.72;1.85;;;27.20;1.00;;;;;;5031636;28;20033;-57
2022/08/23 01:06:21;;;;;;;2.38;2.20;;;27.10;1.00;;;;;;5041019;28;20029;-56
2022/08/23 01:08:52;;;;;;;5.68;2.10;;;27.10;1.00;;;;;;5026314;28;20057;-57
2022/08/23 01:11:27;;;;;;;4.15;1.90;;;27.10;1.00;;;;;;5031661;28;20026;-57
2022/08/23 01:13:59;;;;;;;4.90;2.20;;;27.00;1.00;;;;;;5029519;28;20567;-58
2022/08/23 01:16:38;;;;;;;4.43;2.17;;;27.00;1.00;;;;;;5038104;28;20360;-56
2022/08/23 01:19:11;;;;;;;4.07;2.20;;;27.00;1.00;;;;;;5037772;28;20033;-56
2022/08/23 01:21:51;;;;;;;2.20;1.80;;;27.00;1.00;;;;;;5039919;28;20436;-56
2022/08/23 01:24:21;;;;;;;8.38;2.63;;;26.90;1.00;;;;;;5027887;28;20021;-57
2022/08/23 01:26:47;;;;;;;3.00;1.92;;;26.90;1.00;;;;;;5010685;28;20040;-57
2022/08/23 01:29:13;;;;;;;1.80;1.70;;;26.90;1.00;;;;;;5024099;28;20374;-57
2022/08/23 01:31:38;;;;;;;4.15;1.90;;;26.90;1.00;;;;;;5017903;28;20038;-58
2022/08/23 01:34:07;;;;;;;2.75;2.08;;;27.00;1.00;;;;;;5009685;28;20025;-58
2022/08/23 01:36:34;;;;;;;2.35;1.77;;;26.90;1.00;;;;;;5010809;28;20099;-57
2022/08/23 01:39:01;;;;;;;1.75;1.65;;;26.80;1.00;;;;;;5011352;28;20114;-57
2022/08/23 01:44:48;;;;;;;5.85;2.10;;;26.80;1.00;;;;;;5001908;28;20112;-58
2022/08/23 01:47:14;;;;;;;1.45;1.42;;;26.80;1.00;;;;;;5014843;28;20034;-56
2022/08/23 01:49:39;;;;;;;3.38;1.95;;;26.70;1.00;;;;;;5014076;28;20069;-57
2022/08/23 01:52:05;;;;;;;1.65;1.55;;;26.60;1.00;;;;;;5014685;28;20415;-58
2022/08/23 01:54:31;;;;;;;2.00;1.90;;;26.70;1.00;;;;;;5024102;28;20104;-57
2022/08/23 01:56:57;;;;;;;3.88;2.28;;;26.70;1.00;;;;;;5022034;28;20363;-56
2022/08/23 01:59:23;;;;;;;6.93;1.70;;;26.70;1.00;;;;;;5014016;28;20403;-56
2022/08/23 02:01:49;;;;;;;7.15;2.25;;;26.70;1.00;;;;;;5013906;28;20026;-55
2022/08/23 02:04:14;;;;;;;3.38;2.05;;;26.70;1.00;;;;;;5014254;28;20036;-55
2022/08/23 02:06:40;;;;;;;2.30;1.77;;;26.70;1.00;;;;;;5000790;28;20042;-57
2022/08/23 02:09:06;;;;;;;2.88;2.33;;;26.70;1.00;;;;;;5010226;28;20495;-57
2022/08/23 02:11:38;;;;;;;3.80;2.45;;;26.70;1.00;;;;;;5017116;28;20029;-57
2022/08/23 02:14:19;;;;;;;3.50;2.10;;;26.70;1.00;;;;;;5014267;28;20033;-58
2022/08/23 02:16:49;;;;;;;2.97;1.73;;;26.60;1.00;;;;;;5013708;28;20415;-57
2022/08/23 02:19:16;;;;;;;2.08;1.88;;;26.70;1.00;;;;;;5014107;28;20553;-57
2022/08/23 02:21:45;;;;;;;3.92;1.92;;;26.60;1.00;;;;;;5011130;28;20038;-57
2022/08/23 02:24:18;;;;;;;3.40;2.03;;;26.60;1.00;;;;;;5013314;28;20112;-57
2022/08/23 02:26:47;;;;;;;2.38;2.17;;;26.50;1.00;;;;;;5037225;28;20052;-58
2022/08/23 02:29:14;;;;;;;2.15;1.60;;;26.60;1.00;;;;;;5033771;28;20018;-56
2022/08/23 02:31:39;;;;;;;6.65;2.35;;;26.50;1.00;;;;;;5045419;28;20033;-56
2022/08/23 02:34:06;;;;;;;2.63;2.22;;;26.40;1.00;;;;;;5034584;28;20029;-57
2022/08/23 02:36:33;;;;;;;3.58;1.80;;;26.50;1.00;;;;;;5031696;28;20040;-57
2022/08/23 02:39:06;;;;;;;2.25;2.05;;;26.50;1.00;;;;;;5033559;28;20028;-57
2022/08/23 02:41:32;;;;;;;5.05;1.95;;;26.50;1.00;;;;;;5032546;28;20033;-56
2022/08/23 02:43:59;;;;;;;4.05;1.85;;;26.50;1.00;;;;;;5033447;28;20025;-58
2022/08/23 02:46:24;;;;;;;2.35;2.15;;;26.40;1.00;;;;;;5033757;28;20108;-57
2022/08/23 02:48:50;;;;;;;3.38;1.70;;;26.40;1.00;;;;;;5029113;28;20121;-58
2022/08/23 02:51:17;;;;;;;2.58;1.95;;;26.50;1.00;;;;;;5029354;28;20041;-57
2022/08/23 02:53:43;;;;;;;4.50;1.90;;;26.50;1.00;;;;;;5032914;28;20045;-56
2022/08/23 02:56:14;;;;;;;3.30;1.60;;;26.40;1.00;;;;;;5032496;28;20036;-57
2022/08/23 02:58:40;;;;;;;2.22;1.95;;;26.40;1.00;;;;;;5032992;28;20083;-56
2022/08/23 03:01:20;;;;;;;4.50;2.17;;;26.30;1.00;;;;;;5038509;28;20037;-56
2022/08/23 03:03:46;;;;;;;3.65;1.92;;;26.30;1.00;;;;;;5033379;28;20026;-55
2022/08/23 03:06:13;;;;;;;2.05;1.77;;;26.30;1.00;;;;;;5038904;28;20033;-54
2022/08/23 03:08:39;;;;;;;4.13;2.03;;;26.30;1.00;;;;;;5027154;28;20132;-57
2022/08/23 03:11:16;;;;;;;3.45;2.08;;;26.30;1.00;;;;;;5032315;28;20104;-55
2022/08/23 03:13:44;;;;;;;1.67;1.58;;;26.20;1.00;;;;;;5042303;28;20041;-55
2022/08/23 03:16:11;;;;;;;2.83;1.50;;;26.30;1.00;;;;;;5032313;28;20022;-57
2022/08/23 03:18:37;;;;;;;5.18;2.13;;;26.30;1.00;;;;;;5032879;28;20048;-55
2022/08/23 03:21:05;;;;;;;2.50;1.77;;;26.20;1.00;;;;;;5034527;28;20099;-54
2022/08/23 03:23:31;;;;;;;2.63;2.35;;;26.20;1.00;;;;;;5032651;28;20064;-56
2022/08/23 03:25:59;;;;;;;4.05;1.73;;;26.30;1.00;;;;;;5030740;28;20041;-55
2022/08/23 03:28:25;;;;;;;4.78;2.15;;;26.20;1.00;;;;;;5032899;28;20422;-55
2022/08/23 03:30:51;;;;;;;3.08;1.90;;;26.20;1.00;;;;;;5031887;28;20079;-58
2022/08/23 03:33:18;;;;;;;2.50;2.30;;;26.20;1.00;;;;;;5032628;28;20108;-54
2022/08/23 03:35:43;;;;;;;3.45;2.10;;;26.20;1.00;;;;;;5034601;28;20048;-57
2022/08/23 03:38:10;;;;;;;2.35;1.95;;;26.20;1.00;;;;;;5044464;28;20018;-54
2022/08/23 03:40:35;;;;;;;3.50;2.20;;;26.10;1.00;;;;;;5032289;28;20042;-56
2022/08/23 03:43:02;;;;;;;3.47;2.03;;;26.10;1.00;;;;;;5035293;28;20101;-56
2022/08/23 03:45:28;;;;;;;2.63;1.50;;;26.10;1.00;;;;;;5031545;28;20446;-56
2022/08/23 03:47:53;;;;;;;1.80;1.70;;;26.10;1.00;;;;;;5032255;28;20117;-55
2022/08/23 03:50:20;;;;;;;3.97;2.33;;;26.10;1.00;;;;;;5031485;28;20025;-56
2022/08/23 03:52:46;;;;;;;3.42;2.10;;;26.00;1.00;;;;;;5032349;28;20379;-55
2022/08/23 03:55:13;;;;;;;4.25;1.77;;;26.10;1.00;;;;;;5036710;28;20064;-54
2022/08/23 03:57:39;;;;;;;2.97;2.00;;;26.00;1.00;;;;;;5040686;28;20031;-55
2022/08/23 04:00:11;;;;;;;3.10;2.00;;;26.00;1.00;;;;;;5040991;28;20036;-53
2022/08/23 04:02:37;;;;;;;2.85;1.83;;;26.00;1.00;;;;;;5034602;28;20048;-56
2022/08/23 04:05:03;;;;;;;3.00;1.98;;;26.00;1.00;;;;;;5021615;28;20060;-57
2022/08/23 04:07:30;;;;;;;3.20;2.08;;;26.00;1.00;;;;;;5038709;28;20527;-57
2022/08/23 04:09:56;;;;;;;1.85;1.73;;;26.00;1.00;;;;;;5030940;28;20036;-58
2022/08/23 04:12:22;;;;;;;2.25;1.95;;;26.00;1.00;;;;;;5031094;28;20022;-57
2022/08/23 04:14:48;;;;;;;2.80;1.80;;;26.00;1.00;;;;;;5030998;28;20447;-57
2022/08/23 04:17:23;;;;;;;2.95;2.28;;;26.00;1.00;;;;;;5031854;28;20367;-57
2022/08/23 04:19:49;;;;;;;7.15;2.20;;;25.90;1.00;;;;;;5030996;28;20045;-56
2022/08/23 04:22:17;;;;;;;2.67;1.85;;;25.90;1.00;;;;;;5030549;28;20014;-57
2022/08/23 04:24:43;;;;;;;5.30;2.05;;;26.00;1.00;;;;;;5039975;28;20060;-56
2022/08/23 04:27:10;;;;;;;3.97;2.35;;;25.90;1.00;;;;;;5029487;28;20532;-57
2022/08/23 04:29:37;;;;;;;3.72;2.17;;;25.90;1.00;;;;;;5031693;28;20495;-57
2022/08/23 04:32:04;;;;;;;4.03;2.20;;;25.90;1.00;;;;;;5031054;28;20025;-57
2022/08/23 04:34:32;;;;;;;5.03;2.42;;;25.80;1.00;;;;;;5031778;28;20108;-58
2022/08/23 04:36:58;;;;;;;3.03;2.10;;;25.80;1.00;;;;;;5030180;28;20022;-58
2022/08/23 04:39:24;;;;;;;2.20;2.03;;;25.80;1.00;;;;;;5031591;28;20112;-57
2022/08/23 04:44:34;;;;;;;2.20;2.00;;;25.80;1.00;;;;;;5031741;28;20509;-58
2022/08/23 04:47:00;;;;;;;4.47;2.40;;;25.80;1.00;;;;;;5030599;28;20029;-57
2022/08/23 04:49:26;;;;;;;4.85;2.35;;;25.80;1.00;;;;;;5036744;28;20055;-58
2022/08/23 04:51:52;;;;;;;4.75;2.45;;;25.70;1.00;;;;;;5033758;28;20021;-57
2022/08/23 04:54:17;;;;;;;6.68;2.10;;;25.70;1.00;;;;;;5031517;28;20103;-58
2022/08/23 04:56:43;;;;;;;4.78;2.33;;;25.70;1.00;;;;;;5031706;28;20021;-58
2022/08/23 04:59:09;;;;;;;6.07;2.40;;;25.70;1.00;;;;;;5031208;28;20160;-57
2022/08/23 05:01:36;;;;;;;5.40;2.63;;;25.70;1.00;;;;;;5030532;28;20048;-57
2022/08/23 05:04:03;;;;;;;4.75;2.50;;;25.60;1.00;;;;;;5031422;28;20032;-57
2022/08/23 05:06:35;;;;;;;4.57;2.95;;;25.70;1.00;;;;;;5037356;28;20018;-58
2022/08/23 05:09:01;;;;;;;5.22;1.95;;;25.70;1.00;;;;;;5031321;28;20025;-58
2022/08/23 05:11:28;;;;;;;3.05;2.40;;;25.70;1.00;;;;;;5038248;28;20110;-57
2022/08/23 05:13:55;;;;;;;4.72;2.58;;;25.60;1.00;;;;;;5031346;28;20069;-57
2022/08/23 05:16:21;;;;;;;4.80;2.90;;;25.70;1.00;;;;;;5037839;28;20037;-57
2022/08/23 05:18:46;;;;;;;3.38;2.80;;;25.70;1.00;;;;;;5033683;28;20489;-58
2022/08/23 05:21:18;;;;;;;5.70;2.60;;;25.70;1.00;;;;;;5034301;28;20041;-58
2022/08/23 05:23:44;;;;;;;3.92;2.28;;;25.70;1.00;;;;;;5023802;28;20017;-57
2022/08/23 05:26:10;;;;;;;3.75;2.55;;;25.70;1.00;;;;;;5027486;28;20072;-58
2022/08/23 05:28:42;;;;;;;7.85;2.53;;;25.70;1.00;;;;;;5014004;28;20037;-58
2022/08/23 05:31:12;;;;;;;3.45;2.75;;;25.70;1.00;;;;;;5035791;28;20414;-58
2022/08/23 05:33:39;;;;;;;3.40;2.10;;;25.70;1.00;;;;;;5034935;28;20041;-58
2022/08/23 05:36:05;;;;;;;4.18;2.50;;;25.70;1.00;;;;;;5030432;28;20034;-58
2022/08/23 05:38:31;;;;;;;4.85;2.42;;;25.80;1.00;;;;;;5031141;28;20018;-59
2022/08/23 05:41:00;;;;;;;5.00;2.58;;;25.70;1.00;;;;;;5038287;28;20037;-59
2022/08/23 05:43:27;;;;;;;4.53;2.72;;;25.80;1.00;;;;;;5033306;28;20477;-59
2022/08/23 05:46:03;;;;;;;8.00;2.97;;;25.80;1.00;;;;;;5033842;28;20029;-58
2022/08/23 05:48:30;;;;;;;3.65;2.38;;;25.80;1.00;;;;;;5021992;28;20147;-59
2022/08/23 05:50:57;;;;;;;6.07;2.42;;;25.80;1.00;;;;;;5033922;28;20025;-58
2022/08/23 05:53:22;;;;;;;6.63;2.60;;;25.80;1.00;;;;;;5034818;28;20099;-57
2022/08/23 05:56:08;;;;;;;4.05;2.47;;;25.80;1.00;;;;;;5035495;28;20479;-58
2022/08/23 05:58:34;;;;;;;4.68;2.70;;;25.80;1.00;;;;;;5020886;28;20022;-59
2022/08/23 06:00:59;;;;;;;5.38;2.30;;;25.80;1.00;;;;;;5031207;28;20121;-57
2022/08/23 06:03:25;;;;;;;3.65;2.40;;;25.80;1.00;;;;;;5036839;28;20017;-57
2022/08/23 06:05:59;;;;;;;2.97;2.58;;;25.80;1.00;;;;;;5042489;28;20044;-57
2022/08/23 06:08:25;;;;;;;4.68;2.30;;;25.80;1.00;;;;;;5019888;28;20056;-58
2022/08/23 06:11:08;;;;;;;5.93;2.10;;;25.80;1.00;;;;;;5034458;28;20048;-58
2022/08/23 06:13:39;;;;;;;3.05;2.72;;;25.80;1.00;;;;;;5030359;28;20017;-58
2022/08/23 06:16:05;;;;;;;4.50;2.60;;;25.80;1.00;;;;;;5031430;28;20024;-59
2022/08/23 06:18:30;;;;;;;9.23;2.55;;;25.90;1.00;;;;;;5034169;28;20029;-59
2022/08/23 06:21:07;;;;;;;4.68;2.63;;;25.80;1.00;;;;;;5035042;28;20073;-58
2022/08/23 06:23:34;;;;;;;5.07;2.33;;;25.90;1.00;;;;;;5027212;28;20022;-57
2022/08/23 06:26:14;;;;;;;4.90;2.50;;;25.90;1.00;;;;;;5032895;28;20142;-56
2022/08/23 06:28:42;;;;;;;5.15;2.63;;;25.90;1.00;;;;;;5033212;28;20120;-59
2022/08/23 06:31:08;;;;;;;3.72;2.58;;;25.90;1.00;;;;;;5019464;28;20025;-58
2022/08/23 06:33:34;;;;;;;4.13;2.42;;;25.90;1.00;;;;;;5034011;28;20025;-59
2022/08/23 06:36:03;;;;;;;3.13;2.35;;;25.90;1.00;;;;;;5031624;28;20020;-58
2022/08/23 06:38:29;;;;;;;7.55;2.45;;;25.90;1.00;;;;;;5042991;28;20112;-56
2022/08/23 06:41:00;;;;;;;4.55;2.40;;;25.90;1.00;;;;;;5033578;28;20064;-58
2022/08/23 06:43:28;;;;;;;4.30;2.20;;;25.90;1.00;;;;;;5033501;28;20094;-59
2022/08/23 06:45:54;;;;;;;3.35;2.30;;;25.90;1.00;;;;;;5032528;28;20029;-59
2022/08/23 06:48:19;;;;;;;2.50;2.10;;;25.80;1.00;;;;;;5033603;28;20418;-56
2022/08/23 06:50:45;;;;;;;3.17;2.15;;;25.90;1.00;;;;;;5032538;28;20102;-59
2022/08/23 06:53:11;;;;;;;4.22;2.28;;;25.90;1.00;;;;;;5033140;28;20096;-58
2022/08/23 06:55:37;;;;;;;5.97;2.58;;;25.80;1.00;;;;;;5034298;28;20099;-58
2022/08/23 06:58:03;;;;;;;3.20;2.80;;;25.90;1.00;;;;;;5033230;28;20033;-57
2022/08/23 07:00:35;;;;;;;4.88;2.67;;;25.90;1.00;;;;;;5034954;28;20395;-57
2022/08/23 07:03:00;;;;;;;5.35;1.80;;;25.90;1.00;;;;;;5030993;28;20069;-58
2022/08/23 07:05:26;;;;;;;5.40;2.42;;;25.90;1.00;;;;;;5035494;28;20045;-59
2022/08/23 07:07:53;;;;;;;5.72;2.40;;;26.00;1.00;;;;;;5028150;28;20062;-58
2022/08/23 07:10:18;;;;;;;3.67;1.90;;;25.90;1.00;;;;;;5035145;28;20017;-57
2022/08/23 07:12:44;;;;;;;4.40;2.17;;;26.00;1.00;;;;;;5033084;28;20032;-58
2022/08/23 07:15:11;;;;;;;6.97;2.45;;;25.90;1.00;;;;;;5032001;28;20030;-58
2022/08/23 07:17:37;;;;;;;4.63;2.28;;;26.00;1.00;;;;;;5033071;28;20167;-59
2022/08/23 07:20:04;;;;;;;5.20;2.25;;;26.00;1.00;;;;;;5031842;28;20128;-58
2022/08/23 07:22:30;;;;;;;3.65;2.40;;;26.00;1.00;;;;;;5032950;28;20017;-58
2022/08/23 07:24:56;;;;;;;4.15;2.28;;;26.00;1.00;;;;;;5034671;28;20143;-58
2022/08/23 07:27:22;;;;;;;3.22;2.00;;;26.10;1.00;;;;;;5035740;28;20112;-55
2022/08/23 07:29:47;;;;;;;6.72;2.20;;;26.00;1.00;;;;;;5031695;28;20029;-57
2022/08/23 07:32:13;;;;;;;4.85;2.40;;;26.10;1.00;;;;;;5032394;28;20021;-59
2022/08/23 07:34:38;;;;;;;6.45;2.60;;;26.00;1.00;;;;;;5031732;28;20033;-58
2022/08/23 07:37:05;;;;;;;5.07;2.80;;;26.10;1.00;;;;;;5032394;28;20033;-58
2022/08/23 07:39:31;;;;;;;6.93;2.45;;;26.10;1.00;;;;;;5023242;28;20021;-57
2022/08/23 07:42:00;;;;;;;4.40;2.60;;;26.10;1.00;;;;;;5044044;28;20060;-57
2022/08/23 07:44:26;;;;;;;4.47;2.58;;;26.20;1.00;;;;;;5031653;28;20018;-58
2022/08/23 07:46:51;;;;;;;5.28;2.75;;;26.20;1.00;;;;;;5018549;28;20520;-59
2022/08/23 07:49:17;;;;;;;7.57;2.80;;;26.20;1.00;;;;;;5032289;28;20487;-58
2022/08/23 07:51:46;;;;;;;6.88;2.75;;;26.30;1.00;;;;;;5032523;28;20048;-57
2022/08/23 07:54:12;;;;;;;2.55;2.00;;;26.20;1.00;;;;;;5029735;28;20022;-58
2022/08/23 07:56:39;;;;;;;3.05;2.20;;;26.20;1.00;;;;;;5033582;28;20064;-59
2022/08/23 07:59:05;;;;;;;4.60;2.20;;;26.20;1.00;;;;;;5030706;28;20025;-59
2022/08/23 08:08:15;;;;;;;2.42;1.70;;;26.30;1.00;;;;;;5026973;28;20116;-58
2022/08/23 08:10:42;;;;;;;4.10;2.25;;;26.30;1.00;;;;;;5031811;28;20057;-59
2022/08/23 08:13:09;;;;;;;2.25;2.05;;;26.30;1.00;;;;;;5029125;28;20042;-59
2022/08/23 08:15:39;;;;;;;5.15;2.28;;;26.30;1.00;;;;;;5040449;28;20033;-58
2022/08/23 08:18:04;;;;;;;3.78;2.28;;;26.40;1.00;;;;;;5043544;28;20116;-58
2022/08/23 08:20:33;;;;;;;6.55;2.60;;;26.40;1.00;;;;;;5036278;28;20121;-58
2022/08/23 08:22:59;;;;;;;5.40;2.85;;;26.40;1.00;;;;;;5030861;28;20029;-59
2022/08/23 08:25:25;;;;;;;3.83;2.22;;;26.40;1.00;;;;;;5030584;28;20117;-58
2022/08/23 08:27:50;;;;;;;2.85;2.55;;;26.50;1.00;;;;;;5039111;28;20183;-58
2022/08/23 08:30:16;;;;;;;4.00;2.40;;;26.50;1.00;;;;;;5031667;28;20022;-59
2022/08/23 08:32:42;;;;;;;8.10;3.20;;;26.50;1.00;;;;;;5037869;28;20034;-58
2022/08/23 08:35:23;;;;;;;4.88;2.58;;;26.60;1.00;;;;;;5030776;28;20029;-59
2022/08/23 08:37:48;;;;;;;4.55;2.83;;;26.60;1.00;;;;;;5038507;28;20394;-59
2022/08/23 08:40:29;;;;;;;5.45;2.55;;;26.60;1.00;;;;;;5031517;28;20121;-59
2022/08/23 08:43:16;;;;;;;4.13;2.30;;;26.70;1.00;;;;;;5030696;28;20389;-58
2022/08/23 08:46:08;;;;;;;4.45;3.03;;;26.70;1.00;;;;;;5031411;28;20327;-59
2022/08/23 08:48:49;;;;;;;3.83;2.65;;;26.70;1.00;;;;;;5023574;28;20513;-58
2022/08/23 08:51:44;;;;;;;4.40;2.78;;;26.70;1.00;;;;;;5030642;28;20029;-59
2022/08/23 08:54:13;;;;;;;4.97;2.80;;;26.80;1.00;;;;;;5035304;28;20025;-59
2022/08/23 08:56:39;;;;;;;6.53;2.90;;;26.80;1.00;;;;;;5033479;28;20030;-58
2022/08/23 08:59:23;;;;;;;3.70;2.28;;;26.90;1.00;;;;;;5049815;28;20029;-59
2022/08/23 09:01:49;;;;;;;4.60;2.38;;;26.90;1.00;;;;;;5034198;28;20034;-59
2022/08/23 09:04:15;;;;;;;3.58;3.17;;;27.00;1.00;;;;;;5040297;28;20033;-57
2022/08/23 09:06:49;;;;;;;3.50;2.65;;;26.90;1.00;;;;;;5035715;28;20026;-59
2022/08/23 09:09:52;;;;;;;2.95;2.70;;;27.00;1.00;;;;;;5041085;28;20034;-58
2022/08/23 09:12:55;;;;;;;4.63;2.53;;;27.00;1.00;;;;;;5040302;28;20032;-57
2022/08/23 09:16:02;;;;;;;2.75;2.55;;;27.10;1.00;;;;;;5023483;28;20028;-59
2022/08/23 09:18:33;;;;;;;6.13;3.28;;;27.10;1.00;;;;;;5031114;28;20079;-59
2022/08/23 09:21:00;;;;;;;4.00;3.17;;;27.10;1.00;;;;;;5034163;28;20068;-57
2022/08/23 09:23:34;;;;;;;3.85;3.47;;;27.20;1.00;;;;;;5045009;28;20383;-59
2022/08/23 09:26:04;;;;;;;5.18;3.63;;;27.20;1.00;;;;;;5033997;28;20057;-59
2022/08/23 09:28:33;;;;;;;4.03;2.58;;;27.20;1.00;;;;;;5035454;28;20071;-58
2022/08/23 09:30:59;;;;;;;3.38;3.00;;;27.30;1.00;;;;;;5034798;28;20041;-59
2022/08/23 09:33:35;;;;;;;2.60;2.40;;;27.30;1.00;;;;;;5034113;28;20360;-59
2022/08/23 09:36:23;;;;;;;3.50;3.22;;;27.40;1.00;;;;;;5034427;28;20029;-59
2022/08/23 09:39:00;;;;;;;3.30;2.55;;;27.40;1.00;;;;;;5033715;28;20053;-58
2022/08/23 09:41:31;;;;;;;5.55;2.38;;;27.50;1.00;;;;;;5033961;28;20152;-59
2022/08/23 09:44:00;;;;;;;4.10;2.25;;;27.50;1.00;;;;;;5034009;28;20025;-59
2022/08/23 09:46:29;;;;;;;2.40;2.20;;;27.60;1.00;;;;;;5034540;28;20036;-59
2022/08/23 09:48:57;;;;;;;2.50;2.30;;;27.70;1.00;;;;;;5033097;28;20494;-59
2022/08/23 09:51:42;;;;;;;4.50;2.70;;;27.60;1.00;;;;;;5034412;28;20062;-59
2022/08/23 09:54:12;;;;;;;5.47;2.80;;;27.70;1.00;;;;;;5033822;28;20088;-59
2022/08/23 09:56:42;;;;;;;4.47;2.83;;;27.80;1.00;;;;;;5034267;28;20383;-59
2022/08/23 09:59:26;;;;;;;2.80;2.58;;;27.80;1.00;;;;;;5033266;28;20017;-58
2022/08/23 10:01:55;;;;;;;2.60;2.38;;;27.80;1.00;;;;;;5026515;28;20025;-58
2022/08/23 10:04:53;;;;;;;3.53;2.83;;;27.90;1.00;;;;;;5032362;28;20434;-58
2022/08/23 10:07:24;;;;;;;2.10;2.00;;;27.90;1.00;;;;;;5034618;28;20027;-56
2022/08/23 10:09:50;;;;;;;2.90;1.98;;;28.00;1.00;;;;;;5034462;28;20515;-58
2022/08/23 10:12:16;;;;;;;1.80;1.70;;;28.10;1.00;;;;;;5033724;28;20033;-59
2022/08/23 10:14:42;;;;;;;4.30;2.08;;;28.10;1.00;;;;;;5034564;28;20038;-57
2022/08/23 10:17:40;;;;;;;2.92;2.20;;;28.10;1.00;;;;;;5033641;28;20030;-58
2022/08/23 10:20:30;;;;;;;2.92;2.17;;;28.20;1.00;;;;;;5036831;28;20033;-58
2022/08/23 10:23:28;;;;;;;3.05;1.92;;;28.20;1.00;;;;;;5040082;28;20025;-57
2022/08/23 10:25:59;;;;;;;2.55;2.33;;;28.30;1.00;;;;;;5022663;28;20131;-57
2022/08/23 10:31:34;;;;;;;3.95;2.50;;;28.30;1.00;;;;;;5034157;28;20164;-58
2022/08/23 10:34:15;;;;;;;5.57;2.47;;;28.40;1.00;;;;;;5042900;28;20033;-58
2022/08/23 10:37:22;;;;;;;2.72;2.50;;;28.40;1.00;;;;;;5033702;28;20022;-58
2022/08/23 10:40:04;;;;;;;5.03;2.53;;;28.60;1.00;;;;;;5025425;28;20383;-57
2022/08/23 10:42:49;;;;;;;5.03;2.40;;;28.60;1.00;;;;;;5032961;28;20025;-57
2022/08/23 10:45:23;;;;;;;3.15;2.10;;;28.60;1.00;;;;;;5022218;28;20033;-57
2022/08/23 10:48:18;;;;;;;2.95;2.13;;;28.70;1.00;;;;;;5031454;28;20034;-58
2022/08/23 10:50:53;;;;;;;1.83;1.73;;;28.70;1.00;;;;;;5033726;28;20140;-59
2022/08/23 10:53:22;;;;;;;3.17;2.20;;;28.80;1.00;;;;;;5032791;28;20375;-58
2022/08/23 10:56:02;;;;;;;2.65;2.20;;;28.90;1.00;;;;;;5033254;28;20025;-59
2022/08/23 10:58:53;;;;;;;2.42;1.90;;;29.00;1.00;;;;;;5032566;28;20029;-58
2022/08/23 11:01:53;;;;;;;2.80;2.53;;;29.10;1.00;;;;;;5033163;28;20051;-58
2022/08/23 11:04:25;;;;;;;2.95;2.08;;;29.10;1.00;;;;;;5033227;28;20040;-59
2022/08/23 11:13:35;;;;;;;2.60;2.40;;;29.30;1.00;;;;;;5025020;28;20048;-58
2022/08/23 11:16:13;;;;;;;6.13;2.53;;;29.40;1.00;;;;;;5031925;28;20026;-58
2022/08/23 11:18:47;;;;;;;2.53;2.33;;;29.50;1.00;;;;;;5042064;28;20021;-58
2022/08/23 11:21:24;;;;;;;4.18;2.45;;;29.60;1.00;;;;;;5037533;28;20033;-59
2022/08/23 11:24:10;;;;;;;5.03;2.63;;;29.70;1.00;;;;;;5041752;28;20034;-59
2022/08/23 11:26:36;;;;;;;3.50;2.50;;;29.90;1.00;;;;;;5030745;28;20041;-58
2022/08/23 11:29:05;;;;;;;4.35;3.13;;;29.90;1.00;;;;;;5032755;28;20018;-58
2022/08/23 11:31:41;;;;;;;4.18;2.38;;;29.90;1.00;;;;;;5032153;28;20052;-58
2022/08/23 11:34:22;;;;;;;2.53;2.08;;;30.00;1.00;;;;;;5022138;28;20041;-59
2022/08/23 11:37:25;;;;;;;2.47;2.38;;;30.10;1.00;;;;;;5029961;28;20460;-58
2022/08/23 11:39:56;;;;;;;3.83;2.30;;;30.20;1.00;;;;;;5034050;28;20075;-59
2022/08/23 11:42:25;;;;;;;2.85;2.28;;;30.30;1.00;;;;;;5031878;28;20029;-59
2022/08/23 11:44:51;;;;;;;2.97;2.40;;;30.40;1.00;;;;;;5032394;28;20029;-59
2022/08/23 11:47:28;;;;;;;2.38;2.20;;;30.40;1.00;;;;;;5031359;28;20434;-59
2022/08/23 11:50:24;;;;;;;2.20;2.00;;;30.50;1.00;;;;;;5029992;28;20122;-58
2022/08/23 11:53:05;;;;;;;2.25;2.15;;;30.60;1.00;;;;;;5034371;28;20032;-59
2022/08/23 11:55:59;;;;;;;3.88;2.42;;;30.70;1.00;;;;;;5032348;28;20060;-59
2022/08/23 11:58:55;;;;;;;2.88;2.67;;;30.80;1.00;;;;;;5026455;28;20029;-57
2022/08/23 12:01:31;;;;;;;3.40;2.60;;;30.90;1.00;;;;;;5041131;28;20131;-58
2022/08/23 12:04:21;;;;;;;5.78;2.40;;;31.10;1.00;;;;;;5035654;28;20479;-58
2022/08/23 12:06:54;;;;;;;4.57;3.10;;;31.70;1.00;;;;;;5033255;28;20073;-59
2022/08/23 12:09:22;;;;;;;2.40;2.30;;;34.90;1.00;;;;;;5032047;28;20022;-59
2022/08/23 12:11:54;;;;;;;2.58;2.40;;;36.10;1.00;;;;;;5031099;28;20057;-59
2022/08/23 12:14:55;;;;;;;4.00;2.67;;;39.20;1.00;;;;;;5030709;28;20080;-60
2022/08/23 12:17:24;;;;;;;3.63;3.42;;;41.00;1.00;;;;;;5022397;28;20029;-58
2022/08/23 12:20:10;;;;;;;3.92;2.92;;;43.30;1.00;;;;;;5031727;28;20063;-58
2022/08/23 12:22:57;;;;;;;3.63;3.40;;;45.40;99.90;;;;;;5031027;28;20021;-59
2022/08/23 12:25:23;;;;;;;3.67;3.47;;;45.60;99.90;;;;;;5018022;28;20045;-59
2022/08/23 12:28:10;;;;;;;5.90;3.88;;;46.30;99.90;;;;;;5030767;28;20030;-59
2022/08/23 12:31:18;;;;;;;4.20;3.80;;;46.80;99.90;;;;;;5020132;28;20375;-59
2022/08/23 12:34:04;;;;;;;4.63;4.20;;;45.60;99.90;;;;;;5038361;28;20490;-59
2022/08/23 12:36:53;;;;;;;4.38;4.05;;;43.80;99.90;;;;;;5031841;28;20032;-59
2022/08/23 12:39:24;;;;;;;4.65;4.32;;;44.00;99.90;;;;;;5031604;28;20130;-59
2022/08/23 12:42:01;;;;;;;5.30;4.85;;;43.70;99.90;;;;;;5031593;28;20029;-59
2022/08/23 12:44:29;;;;;;;5.03;4.57;;;43.40;1.00;;;;;;5022016;28;20107;-59
2022/08/23 12:46:55;;;;;;;5.25;4.95;;;42.90;1.00;;;;;;5031123;28;20131;-59
2022/08/23 12:49:30;;;;;;;5.32;4.88;;;41.30;1.00;;;;;;5030355;28;20024;-59
2022/08/23 12:55:19;;;;;;;5.85;5.40;;;40.10;1.00;;;;;;5027318;28;20056;-59
2022/08/23 12:57:55;;;;;;;6.40;5.88;;;43.30;99.90;;;;;;5031721;28;20116;-59
2022/08/23 13:00:32;;;;;;;6.55;6.05;;;46.40;99.90;;;;;;5029146;28;20037;-59
2022/08/23 13:03:07;;;;;;;6.50;6.18;;;48.20;99.90;;;;;;5027602;28;20044;-59
2022/08/23 13:05:32;;;;;;;6.32;5.85;;;49.30;99.90;;;;;;5030286;28;20498;-57
2022/08/23 13:08:00;;;;;;;6.22;5.93;;;49.80;99.90;;;;;;5020545;28;20120;-58
2022/08/23 13:10:26;;;;;;;6.25;5.95;;;50.00;99.90;;;;;;5029206;28;20034;-59
2022/08/23 13:12:52;;;;;;;6.43;6.03;;;50.10;99.90;;;;;;5031230;28;20319;-59
2022/08/23 13:15:42;;;;;;;6.93;6.35;;;50.60;99.90;;;;;;5030201;28;20456;-59
2022/08/23 13:18:07;;;;;;;7.50;7.05;;;51.10;99.90;;;;;;5031154;28;20060;-58
2022/08/23 13:20:33;;;;;;;6.80;6.40;;;50.80;99.90;;;;;;5039497;28;20049;-59
2022/08/23 13:23:06;;;;;;;7.05;6.38;;;51.70;99.90;;;;;;5031182;28;20136;-59
2022/08/23 13:25:39;;;;;;;6.53;6.10;;;50.10;99.90;;;;;;5036789;28;20129;-59
2022/08/23 13:28:27;;;;;;;6.25;5.90;;;50.70;99.90;;;;;;5029960;28;20021;-59
2022/08/23 13:31:02;;;;;;;6.30;5.80;;;51.20;99.90;;;;;;5039423;28;20038;-59
2022/08/23 13:33:28;;;;;;;6.10;5.70;;;51.50;99.90;;;;;;5031357;28;20108;-59
2022/08/23 13:36:19;;;;;;;6.32;5.93;;;51.10;99.90;;;;;;5030342;28;20444;-60
2022/08/23 13:38:45;;;;;;;6.40;6.00;;;51.50;99.90;;;;;;5032185;28;20077;-60
2022/08/23 13:41:28;;;;;;;6.25;5.85;;;50.40;99.90;;;;;;5046319;28;20387;-59
2022/08/23 13:43:54;;;;;;;10.23;6.10;;;50.80;99.90;;;;;;5036069;28;20475;-59
2022/08/23 13:46:25;;;;;;;6.15;5.72;;;51.40;99.90;;;;;;5046759;28;20047;-59
2022/08/23 13:48:55;;;;;;;6.55;6.15;;;50.40;99.90;;;;;;5034956;28;20107;-59
2022/08/23 13:51:37;;;;;;;5.60;5.15;;;48.00;99.90;;;;;;5034032;28;20029;-60